AirNav   ATP
 
 379 users online  

KCRZ Corning Municipal Airport
Corning, Iowa, USA

GOING TO CORNING?


FAA INFORMATION EFFECTIVE 13 SEPTEMBER 2018

Location

FAA Identifier: CRZ
Lat/Long: 40-59-38.8500N / 094-45-18.1070W
40-59.647500N / 094-45.301783W
40.9941250 / -94.7550297
(estimated)
Elevation: 1274 ft. / 388.3 m (surveyed)
Variation: 04E (1995)
From city: 1 mile W of CORNING, IA
Time zone: UTC -5 (UTC -6 during Standard Time)
Zip code: 50841

Airport Operations

Airport use: Open to the public
Activation date: 03/1957
Control tower: no
ARTCC: MINNEAPOLIS CENTER
FSS: FORT DODGE FLIGHT SERVICE STATION
NOTAMs facility: FOD (NOTAM-D service available)
Attendance: UNATNDD
Wind indicator: lighted
Segmented circle: no
Lights: ACTVT MIRL RY 18/36 - 122.8.
Beacon: white-green (lighted land airport)
Operates sunset to sunrise.

Airport Communications

CTAF: 122.9
WX AWOS-3 at CSQ (18 nm E): 124.75 (641-782-6286)
  • APCH/DEP SVC PRVDD BY MINNEAPOLIS ARTCC ON FREQS 119.6/290.4 (OMAHA RCAG).

Nearby radio navigation aids

NDB name  Hdg/Dist  Freq  Var  ID
SHENANDOAH059/33.041105ESDA ... -.. .-

Airport Services

Fuel available: 100LL
SELF SERVICE FUEL AVBL 24 HOURS WITH CREDIT CARD
Parking: tiedowns
Bottled oxygen: NONE
Bulk oxygen: NONE

Runway Information

Runway 18/36

Dimensions: 2684 x 50 ft. / 818 x 15 m
Surface: concrete, in good condition
Runway edge lights: medium intensity
RUNWAY 18  RUNWAY 36
Latitude: 40-59.868750N40-59.426867N
Longitude: 094-45.296533W094-45.306800W
Elevation: 1274.0 ft.1248.0 ft.
Traffic pattern: rightleft
Runway heading: 177 magnetic, 181 true357 magnetic, 001 true
Markings: nonprecision, in fair conditionnonprecision, in fair condition
Runway end identifier lights: no
Touchdown point: yes, no lightsyes, no lights
Obstructions: 24 ft. tree, 1065 ft. from runway, 116 ft. right of centerline, 36:1 slope to clear27 ft. tree, 210 ft. from runway, 205 ft. right of centerline, 1:1 slope to clear

Airport Ownership and Management from official FAA records

Ownership: Publicly-owned
Owner: CITY OF CORNING
601 6TH
CORNING, IA 50841
Phone 641-322-4230
Manager: IONA ALLEN
601 6TH
CORNING, IA 50841
Phone 641-322-4230
MAYOR - JANICE LEONARD CITY CLERK - IONA M. ALLEN

Airport Operational Statistics

Aircraft based on the field: 7
Single engine airplanes: 7
    
Aircraft operations: avg 38/week *
62% local general aviation
38% transient general aviation
* for 12-month period ending 23 August 2016

Additional Remarks

CTN: SHARP DROP BOTH ENDS RWY 18/36.

Instrument Procedures

NOTE: All procedures below are presented as PDF files. If you need a reader for these files, you should download the free Adobe Reader.

NOT FOR NAVIGATION. Please procure official charts for flight.
FAA instrument procedures published for use from 13 September 2018 at 0901Z to 11 October 2018 at 0900Z.

 
IAPs - Instrument Approach Procedures
RNAV (GPS) RWY 18   download (135KB)
NOTE: Special Take-Off Minimums/Departure Procedures apply   download (158KB)

Other nearby airports with instrument procedures:

KCSQ - Creston Municipal Airport (18 nm E)
KICL - Schenck Field Airport (20 nm SW)
KRDK - Red Oak Municipal Airport (23 nm W)
KGFZ - Greenfield Municipal Airport (24 nm NE)
KAIO - Atlantic Municipal Airport (28 nm NW)
 
Loc | Ops | Rwys | IFR | FBO | Links
Com | Nav | Svcs | Stats | Notes


 
Area around KCRZ (Corning Municipal Airport)
 
Road maps at: MapQuest Bing Google
 
Aerial photo
WARNING: Photo may not be current or correct
Aerial photo of KCRZ (Corning Municipal Airport)
Do you have a better or more recent aerial photo of Corning Municipal Airport that you would like to share? If so, please send us your photo.

 
Sectional chart

 
Airport distance calculator
Flying to Corning Municipal Airport? Find the distance to fly.

From to KCRZ

Sunrise and sunset
Times for 23-Sep-2018
 Local
(UTC-5)
 Zulu
(UTC)
Morning civil twilight06:4111:41
Sunrise07:0812:08
Sunset19:1400:14
Evening civil twilight19:4200:42

Current date and time
Zulu (UTC)  23-Sep-2018 10:02:28
Local (UTC-5)  23-Sep-2018 05:02:28
 
METAR
KCSQ 
18nm E 
230955Z AUTO 16005KT 10SM CLR 10/09 A3010 RMK AO2
KICL 
20nm SW 
230955Z AUTO 00000KT 10SM CLR 07/07 A3010 RMK AO2
KRDK 
23nm W 
230955Z AUTO 00000KT 10SM CLR 08/08 A3008 RMK AO2
KAIO 
28nm NW 
230955Z AUTO 00000KT 10SM CLR 09/09 A3008 RMK AO2
KSDA 
33nm SW 
230955Z AUTO 00000KT 10SM CLR 09/08 A3008 RMK AO2
TAF
NOTAMs
Click for the latest NOTAMs
NOTAMs are issued by the DoD/FAA and will open in a separate window not controlled by AirNav.

 

 
 

FBO, Fuel Providers, and Aircraft Ground Support

  
 Business Name 
 
 Contact 
 
 Services / Description 
 
Fuel Prices
 
Comments
  
City of Corning 641-322-4230
no information available

If you are affiliated with City of Corning and would like to show here your services, contact info, web link, logo, and more, click here
100LL
AS $4.49 
 Updated 18-Sep-2018
 
   1 read write
AS=Assisted/Self Service
Update Fuel Prices
 

Would you like to see your business listed on this page?

 If your business provides an interesting product or service to pilots, flight crews, aircraft, or users of the Corning Municipal Airport, you should consider listing it here.  To start the listing process, click on the button below
 
Add a business
 

Other Pages about Corning Municipal Airport

www.cityofcorningia.com/index.asp?SEC=F14F01FA-B5A3-4C1E-A6E0-9ED3FA951FFB&Type=B_BASIC
Page from the Iowa Airport Directory
 
Update a link
 
Copyright © AirNav, LLC. All rights reserved. Privacy Policy  Contact